sensor_id;sensor_type;location;lat;lon;timestamp;P1;durP1;ratioP1;P2;durP2;ratioP2
43363;SDS011;40636;52.424;-1.948;2022-09-01T00:02:29;3.08;;;1.45;;
43363;SDS011;40636;52.424;-1.948;2022-09-01T00:04:56;3.85;;;1.48;;
43363;SDS011;40636;52.424;-1.948;2022-09-01T00:07:25;2.70;;;1.58;;
43363;SDS011;40636;52.424;-1.948;2022-09-01T00:09:56;3.10;;;1.58;;
43363;SDS011;40636;52.424;-1.948;2022-09-01T00:12:28;4.88;;;1.90;;
43363;SDS011;40636;52.424;-1.948;2022-09-01T00:14:56;7.03;;;2.55;;
43363;SDS011;40636;52.424;-1.948;2022-09-01T00:17:24;4.47;;;2.13;;
43363;SDS011;40636;52.424;-1.948;2022-09-01T00:19:52;5.60;;;1.83;;
43363;SDS011;40636;52.424;-1.948;2022-09-01T00:22:19;6.18;;;2.00;;
43363;SDS011;40636;52.424;-1.948;2022-09-01T00:24:46;4.55;;;2.17;;
43363;SDS011;40636;52.424;-1.948;2022-09-01T00:27:13;6.50;;;2.15;;
43363;SDS011;40636;52.424;-1.948;2022-09-01T00:29:40;9.00;;;2.38;;
43363;SDS011;40636;52.424;-1.948;2022-09-01T00:32:09;8.20;;;2.17;;
43363;SDS011;40636;52.424;-1.948;2022-09-01T00:34:37;6.40;;;2.70;;
43363;SDS011;40636;52.424;-1.948;2022-09-01T00:37:05;6.40;;;2.40;;
43363;SDS011;40636;52.424;-1.948;2022-09-01T00:39:32;8.15;;;2.38;;
43363;SDS011;40636;52.424;-1.948;2022-09-01T00:41:59;5.05;;;2.78;;
43363;SDS011;40636;52.424;-1.948;2022-09-01T00:44:27;3.13;;;2.47;;
43363;SDS011;40636;52.424;-1.948;2022-09-01T00:46:57;19.05;;;2.80;;
43363;SDS011;40636;52.424;-1.948;2022-09-01T00:49:34;2.90;;;2.20;;
43363;SDS011;40636;52.424;-1.948;2022-09-01T00:52:06;5.13;;;2.42;;
43363;SDS011;40636;52.424;-1.948;2022-09-01T00:54:44;3.50;;;2.30;;
43363;SDS011;40636;52.424;-1.948;2022-09-01T00:57:16;5.20;;;2.72;;
43363;SDS011;40636;52.424;-1.948;2022-09-01T00:59:48;6.63;;;2.75;;
43363;SDS011;40636;52.424;-1.948;2022-09-01T01:02:20;12.40;;;3.28;;
43363;SDS011;40636;52.424;-1.948;2022-09-01T01:04:49;5.55;;;2.65;;
43363;SDS011;40636;52.424;-1.948;2022-09-01T01:07:18;8.23;;;3.35;;
43363;SDS011;40636;52.424;-1.948;2022-09-01T01:09:48;7.85;;;3.50;;
43363;SDS011;40636;52.424;-1.948;2022-09-01T01:12:16;6.90;;;3.00;;
43363;SDS011;40636;52.424;-1.948;2022-09-01T01:14:44;8.68;;;3.00;;
43363;SDS011;40636;52.424;-1.948;2022-09-01T01:17:17;9.02;;;3.03;;
43363;SDS011;40636;52.424;-1.948;2022-09-01T01:19:52;6.03;;;3.63;;
43363;SDS011;40636;52.424;-1.948;2022-09-01T01:22:40;9.85;;;2.90;;
43363;SDS011;40636;52.424;-1.948;2022-09-01T01:25:36;5.30;;;2.83;;
43363;SDS011;40636;52.424;-1.948;2022-09-01T01:28:18;8.25;;;3.67;;
43363;SDS011;40636;52.424;-1.948;2022-09-01T01:30:52;10.68;;;3.00;;
43363;SDS011;40636;52.424;-1.948;2022-09-01T01:33:35;5.35;;;3.60;;
43363;SDS011;40636;52.424;-1.948;2022-09-01T01:36:10;9.73;;;3.25;;
43363;SDS011;40636;52.424;-1.948;2022-09-01T01:38:59;8.15;;;3.75;;
43363;SDS011;40636;52.424;-1.948;2022-09-01T01:41:28;5.63;;;2.72;;
43363;SDS011;40636;52.424;-1.948;2022-09-01T01:43:58;5.43;;;2.42;;
43363;SDS011;40636;52.424;-1.948;2022-09-01T01:46:30;7.82;;;3.50;;
43363;SDS011;40636;52.424;-1.948;2022-09-01T01:48:59;4.90;;;2.45;;
43363;SDS011;40636;52.424;-1.948;2022-09-01T01:51:28;7.32;;;2.72;;
43363;SDS011;40636;52.424;-1.948;2022-09-01T01:53:57;7.20;;;2.80;;
43363;SDS011;40636;52.424;-1.948;2022-09-01T01:56:27;7.80;;;2.95;;
43363;SDS011;40636;52.424;-1.948;2022-09-01T01:58:54;11.00;;;2.63;;
43363;SDS011;40636;52.424;-1.948;2022-09-01T02:01:23;7.47;;;2.40;;
43363;SDS011;40636;52.424;-1.948;2022-09-01T02:03:54;5.25;;;2.72;;
43363;SDS011;40636;52.424;-1.948;2022-09-01T02:06:26;5.35;;;2.95;;
43363;SDS011;40636;52.424;-1.948;2022-09-01T02:08:54;5.38;;;2.85;;
43363;SDS011;40636;52.424;-1.948;2022-09-01T02:11:24;3.80;;;2.83;;
43363;SDS011;40636;52.424;-1.948;2022-09-01T02:13:54;7.13;;;3.00;;
43363;SDS011;40636;52.424;-1.948;2022-09-01T02:16:22;11.55;;;3.33;;
43363;SDS011;40636;52.424;-1.948;2022-09-01T02:18:50;4.72;;;2.60;;
43363;SDS011;40636;52.424;-1.948;2022-09-01T02:21:22;5.43;;;3.38;;
43363;SDS011;40636;52.424;-1.948;2022-09-01T02:23:51;8.38;;;3.38;;
43363;SDS011;40636;52.424;-1.948;2022-09-01T02:26:25;6.18;;;3.00;;
43363;SDS011;40636;52.424;-1.948;2022-09-01T02:28:58;9.13;;;4.30;;
43363;SDS011;40636;52.424;-1.948;2022-09-01T02:31:30;7.07;;;3.33;;
43363;SDS011;40636;52.424;-1.948;2022-09-01T02:34:01;7.68;;;2.47;;
43363;SDS011;40636;52.424;-1.948;2022-09-01T02:36:30;4.50;;;2.88;;
43363;SDS011;40636;52.424;-1.948;2022-09-01T02:39:02;5.75;;;2.53;;
43363;SDS011;40636;52.424;-1.948;2022-09-01T02:41:33;6.07;;;3.45;;
43363;SDS011;40636;52.424;-1.948;2022-09-01T02:44:00;8.02;;;2.42;;
43363;SDS011;40636;52.424;-1.948;2022-09-01T02:46:28;10.45;;;3.63;;
43363;SDS011;40636;52.424;-1.948;2022-09-01T02:48:55;5.05;;;3.08;;
43363;SDS011;40636;52.424;-1.948;2022-09-01T02:51:26;4.10;;;2.33;;
43363;SDS011;40636;52.424;-1.948;2022-09-01T02:53:53;7.43;;;3.00;;
43363;SDS011;40636;52.424;-1.948;2022-09-01T02:56:21;4.65;;;3.08;;
43363;SDS011;40636;52.424;-1.948;2022-09-01T02:58:51;5.85;;;2.92;;
43363;SDS011;40636;52.424;-1.948;2022-09-01T03:01:20;7.22;;;2.63;;
43363;SDS011;40636;52.424;-1.948;2022-09-01T03:03:53;6.13;;;2.92;;
43363;SDS011;40636;52.424;-1.948;2022-09-01T03:06:21;6.05;;;2.80;;
43363;SDS011;40636;52.424;-1.948;2022-09-01T03:08:50;5.05;;;3.13;;
43363;SDS011;40636;52.424;-1.948;2022-09-01T03:11:19;7.20;;;2.97;;
43363;SDS011;40636;52.424;-1.948;2022-09-01T03:13:47;7.20;;;3.20;;
43363;SDS011;40636;52.424;-1.948;2022-09-01T03:16:14;3.70;;;2.50;;
43363;SDS011;40636;52.424;-1.948;2022-09-01T03:18:41;4.93;;;3.10;;
43363;SDS011;40636;52.424;-1.948;2022-09-01T03:21:09;9.13;;;2.97;;
43363;SDS011;40636;52.424;-1.948;2022-09-01T03:23:43;3.65;;;2.72;;
43363;SDS011;40636;52.424;-1.948;2022-09-01T03:26:12;6.20;;;3.55;;
43363;SDS011;40636;52.424;-1.948;2022-09-01T03:28:39;5.05;;;3.28;;
43363;SDS011;40636;52.424;-1.948;2022-09-01T03:31:07;6.93;;;2.88;;
43363;SDS011;40636;52.424;-1.948;2022-09-01T03:33:34;5.65;;;2.78;;
43363;SDS011;40636;52.424;-1.948;2022-09-01T03:36:03;8.38;;;3.50;;
43363;SDS011;40636;52.424;-1.948;2022-09-01T03:38:40;5.28;;;2.85;;
43363;SDS011;40636;52.424;-1.948;2022-09-01T03:41:09;10.68;;;3.10;;
43363;SDS011;40636;52.424;-1.948;2022-09-01T03:43:38;4.47;;;2.80;;
43363;SDS011;40636;52.424;-1.948;2022-09-01T03:46:13;7.60;;;2.83;;
43363;SDS011;40636;52.424;-1.948;2022-09-01T03:48:48;6.20;;;2.65;;
43363;SDS011;40636;52.424;-1.948;2022-09-01T03:51:17;6.55;;;2.78;;
43363;SDS011;40636;52.424;-1.948;2022-09-01T03:53:51;8.05;;;3.38;;
43363;SDS011;40636;52.424;-1.948;2022-09-01T03:56:24;9.30;;;3.42;;
43363;SDS011;40636;52.424;-1.948;2022-09-01T03:58:53;5.18;;;2.53;;
43363;SDS011;40636;52.424;-1.948;2022-09-01T04:01:25;5.28;;;3.13;;
43363;SDS011;40636;52.424;-1.948;2022-09-01T04:03:54;5.68;;;3.10;;
43363;SDS011;40636;52.424;-1.948;2022-09-01T04:06:21;5.32;;;3.08;;
43363;SDS011;40636;52.424;-1.948;2022-09-01T04:08:50;5.90;;;2.97;;
43363;SDS011;40636;52.424;-1.948;2022-09-01T04:11:28;5.20;;;3.58;;
43363;SDS011;40636;52.424;-1.948;2022-09-01T04:13:56;6.40;;;2.83;;
43363;SDS011;40636;52.424;-1.948;2022-09-01T04:16:31;9.10;;;3.42;;
43363;SDS011;40636;52.424;-1.948;2022-09-01T04:19:19;9.40;;;3.13;;
43363;SDS011;40636;52.424;-1.948;2022-09-01T04:21:53;6.13;;;3.05;;
43363;SDS011;40636;52.424;-1.948;2022-09-01T04:24:22;9.18;;;3.55;;
43363;SDS011;40636;52.424;-1.948;2022-09-01T04:26:54;8.82;;;3.80;;
43363;SDS011;40636;52.424;-1.948;2022-09-01T04:29:24;7.95;;;3.90;;
43363;SDS011;40636;52.424;-1.948;2022-09-01T04:31:55;7.47;;;3.17;;
43363;SDS011;40636;52.424;-1.948;2022-09-01T04:34:31;5.27;;;3.20;;
43363;SDS011;40636;52.424;-1.948;2022-09-01T04:37:07;6.75;;;3.67;;
43363;SDS011;40636;52.424;-1.948;2022-09-01T04:39:35;5.28;;;3.63;;
43363;SDS011;40636;52.424;-1.948;2022-09-01T04:42:05;10.50;;;3.65;;
43363;SDS011;40636;52.424;-1.948;2022-09-01T04:44:35;8.60;;;2.97;;
43363;SDS011;40636;52.424;-1.948;2022-09-01T04:47:02;4.82;;;2.88;;
43363;SDS011;40636;52.424;-1.948;2022-09-01T04:49:29;7.63;;;3.75;;
43363;SDS011;40636;52.424;-1.948;2022-09-01T04:51:59;8.30;;;3.45;;
43363;SDS011;40636;52.424;-1.948;2022-09-01T04:54:26;8.75;;;3.47;;
43363;SDS011;40636;52.424;-1.948;2022-09-01T04:56:53;12.45;;;5.70;;
43363;SDS011;40636;52.424;-1.948;2022-09-01T04:59:22;5.78;;;3.40;;
43363;SDS011;40636;52.424;-1.948;2022-09-01T05:01:52;7.63;;;3.80;;
43363;SDS011;40636;52.424;-1.948;2022-09-01T05:04:21;8.65;;;2.90;;
43363;SDS011;40636;52.424;-1.948;2022-09-01T05:06:51;8.77;;;3.30;;
43363;SDS011;40636;52.424;-1.948;2022-09-01T05:09:30;11.80;;;3.08;;
43363;SDS011;40636;52.424;-1.948;2022-09-01T05:12:01;7.70;;;2.78;;
43363;SDS011;40636;52.424;-1.948;2022-09-01T05:14:43;4.20;;;2.67;;
43363;SDS011;40636;52.424;-1.948;2022-09-01T05:17:14;5.55;;;2.60;;
43363;SDS011;40636;52.424;-1.948;2022-09-01T05:19:43;8.05;;;2.78;;
43363;SDS011;40636;52.424;-1.948;2022-09-01T05:22:13;7.43;;;3.17;;
43363;SDS011;40636;52.424;-1.948;2022-09-01T05:24:41;10.75;;;3.13;;
43363;SDS011;40636;52.424;-1.948;2022-09-01T05:27:09;5.70;;;3.30;;
43363;SDS011;40636;52.424;-1.948;2022-09-01T05:29:41;9.15;;;3.40;;
43363;SDS011;40636;52.424;-1.948;2022-09-01T05:32:08;14.63;;;5.45;;
43363;SDS011;40636;52.424;-1.948;2022-09-01T05:34:39;5.63;;;3.25;;
43363;SDS011;40636;52.424;-1.948;2022-09-01T05:37:07;7.32;;;2.97;;
43363;SDS011;40636;52.424;-1.948;2022-09-01T05:39:35;5.80;;;3.00;;
43363;SDS011;40636;52.424;-1.948;2022-09-01T05:42:04;7.75;;;3.15;;
43363;SDS011;40636;52.424;-1.948;2022-09-01T05:44:37;5.80;;;2.80;;
43363;SDS011;40636;52.424;-1.948;2022-09-01T05:47:09;7.93;;;2.40;;
43363;SDS011;40636;52.424;-1.948;2022-09-01T05:49:46;8.02;;;3.13;;
43363;SDS011;40636;52.424;-1.948;2022-09-01T05:52:15;5.97;;;2.38;;
43363;SDS011;40636;52.424;-1.948;2022-09-01T05:54:42;4.63;;;2.72;;
43363;SDS011;40636;52.424;-1.948;2022-09-01T05:57:10;8.93;;;2.30;;
43363;SDS011;40636;52.424;-1.948;2022-09-01T05:59:57;6.07;;;2.35;;
43363;SDS011;40636;52.424;-1.948;2022-09-01T06:02:24;9.15;;;2.33;;
43363;SDS011;40636;52.424;-1.948;2022-09-01T06:04:53;4.55;;;2.85;;
43363;SDS011;40636;52.424;-1.948;2022-09-01T06:07:22;4.57;;;2.53;;
43363;SDS011;40636;52.424;-1.948;2022-09-01T06:09:51;7.25;;;2.95;;
43363;SDS011;40636;52.424;-1.948;2022-09-01T06:12:19;8.05;;;2.38;;
43363;SDS011;40636;52.424;-1.948;2022-09-01T06:14:50;5.35;;;2.38;;
43363;SDS011;40636;52.424;-1.948;2022-09-01T06:17:23;6.32;;;2.22;;
43363;SDS011;40636;52.424;-1.948;2022-09-01T06:19:52;5.65;;;2.20;;
43363;SDS011;40636;52.424;-1.948;2022-09-01T06:22:23;14.48;;;3.55;;
43363;SDS011;40636;52.424;-1.948;2022-09-01T06:24:54;6.70;;;2.40;;
43363;SDS011;40636;52.424;-1.948;2022-09-01T06:27:28;7.40;;;2.80;;
43363;SDS011;40636;52.424;-1.948;2022-09-01T06:29:56;6.65;;;2.17;;
43363;SDS011;40636;52.424;-1.948;2022-09-01T06:32:23;4.95;;;2.10;;
43363;SDS011;40636;52.424;-1.948;2022-09-01T06:34:52;4.90;;;2.67;;
43363;SDS011;40636;52.424;-1.948;2022-09-01T06:37:20;6.68;;;2.55;;
43363;SDS011;40636;52.424;-1.948;2022-09-01T06:39:48;5.30;;;2.30;;
43363;SDS011;40636;52.424;-1.948;2022-09-01T06:42:16;4.43;;;2.33;;
43363;SDS011;40636;52.424;-1.948;2022-09-01T06:44:44;6.38;;;3.05;;
43363;SDS011;40636;52.424;-1.948;2022-09-01T06:47:11;2.80;;;2.10;;
43363;SDS011;40636;52.424;-1.948;2022-09-01T06:49:41;4.65;;;2.03;;
43363;SDS011;40636;52.424;-1.948;2022-09-01T06:52:08;7.43;;;2.35;;
43363;SDS011;40636;52.424;-1.948;2022-09-01T06:54:39;4.88;;;2.13;;
43363;SDS011;40636;52.424;-1.948;2022-09-01T06:57:09;10.25;;;2.95;;
43363;SDS011;40636;52.424;-1.948;2022-09-01T07:02:23;3.65;;;1.83;;
43363;SDS011;40636;52.424;-1.948;2022-09-01T07:04:52;8.35;;;2.20;;
43363;SDS011;40636;52.424;-1.948;2022-09-01T07:07:21;9.23;;;2.22;;
43363;SDS011;40636;52.424;-1.948;2022-09-01T07:10:08;7.65;;;2.03;;
43363;SDS011;40636;52.424;-1.948;2022-09-01T07:12:52;7.65;;;2.38;;
43363;SDS011;40636;52.424;-1.948;2022-09-01T07:15:39;5.70;;;1.90;;
43363;SDS011;40636;52.424;-1.948;2022-09-01T07:18:27;5.57;;;2.28;;
43363;SDS011;40636;52.424;-1.948;2022-09-01T07:20:58;4.20;;;2.10;;
43363;SDS011;40636;52.424;-1.948;2022-09-01T07:23:45;6.28;;;2.40;;
43363;SDS011;40636;52.424;-1.948;2022-09-01T07:26:33;3.70;;;1.80;;
43363;SDS011;40636;52.424;-1.948;2022-09-01T07:29:02;4.72;;;2.35;;
43363;SDS011;40636;52.424;-1.948;2022-09-01T07:31:37;5.90;;;1.90;;
43363;SDS011;40636;52.424;-1.948;2022-09-01T07:34:26;3.53;;;1.80;;
43363;SDS011;40636;52.424;-1.948;2022-09-01T07:37:21;13.43;;;3.20;;
43363;SDS011;40636;52.424;-1.948;2022-09-01T07:40:14;3.05;;;2.13;;
43363;SDS011;40636;52.424;-1.948;2022-09-01T07:43:06;4.35;;;2.03;;
43363;SDS011;40636;52.424;-1.948;2022-09-01T07:45:42;9.70;;;2.30;;
43363;SDS011;40636;52.424;-1.948;2022-09-01T07:48:23;5.68;;;1.92;;
43363;SDS011;40636;52.424;-1.948;2022-09-01T07:51:14;5.70;;;1.98;;
43363;SDS011;40636;52.424;-1.948;2022-09-01T07:54:02;5.60;;;1.60;;
43363;SDS011;40636;52.424;-1.948;2022-09-01T07:56:30;5.30;;;1.90;;
43363;SDS011;40636;52.424;-1.948;2022-09-01T07:59:04;3.10;;;1.60;;
43363;SDS011;40636;52.424;-1.948;2022-09-01T08:01:32;6.28;;;1.98;;
43363;SDS011;40636;52.424;-1.948;2022-09-01T08:03:59;1.80;;;1.40;;
43363;SDS011;40636;52.424;-1.948;2022-09-01T08:06:28;5.43;;;1.80;;
43363;SDS011;40636;52.424;-1.948;2022-09-01T08:09:04;3.03;;;1.75;;
43363;SDS011;40636;52.424;-1.948;2022-09-01T08:11:37;2.97;;;1.40;;
43363;SDS011;40636;52.424;-1.948;2022-09-01T08:14:25;12.00;;;2.03;;
43363;SDS011;40636;52.424;-1.948;2022-09-01T08:16:52;6.72;;;2.00;;
43363;SDS011;40636;52.424;-1.948;2022-09-01T08:19:20;3.50;;;1.77;;
43363;SDS011;40636;52.424;-1.948;2022-09-01T08:21:47;4.20;;;1.20;;
43363;SDS011;40636;52.424;-1.948;2022-09-01T08:24:14;7.10;;;2.30;;
43363;SDS011;40636;52.424;-1.948;2022-09-01T08:26:41;3.88;;;1.45;;
43363;SDS011;40636;52.424;-1.948;2022-09-01T08:29:17;5.05;;;2.30;;
43363;SDS011;40636;52.424;-1.948;2022-09-01T08:31:45;6.85;;;1.58;;
43363;SDS011;40636;52.424;-1.948;2022-09-01T08:34:13;1.73;;;1.23;;
43363;SDS011;40636;52.424;-1.948;2022-09-01T08:36:43;6.03;;;1.98;;
43363;SDS011;40636;52.424;-1.948;2022-09-01T08:39:11;3.92;;;1.58;;
43363;SDS011;40636;52.424;-1.948;2022-09-01T08:44:27;3.67;;;1.20;;
43363;SDS011;40636;52.424;-1.948;2022-09-01T08:47:22;2.38;;;1.23;;
43363;SDS011;40636;52.424;-1.948;2022-09-01T08:50:09;2.40;;;1.45;;
43363;SDS011;40636;52.424;-1.948;2022-09-01T08:52:39;6.53;;;1.80;;
43363;SDS011;40636;52.424;-1.948;2022-09-01T08:55:21;0.98;;;0.82;;
43363;SDS011;40636;52.424;-1.948;2022-09-01T08:57:55;3.92;;;1.40;;
43363;SDS011;40636;52.424;-1.948;2022-09-01T09:00:27;1.95;;;1.50;;
43363;SDS011;40636;52.424;-1.948;2022-09-01T09:08:55;3.35;;;1.27;;
43363;SDS011;40636;52.424;-1.948;2022-09-01T09:11:37;1.42;;;0.88;;
43363;SDS011;40636;52.424;-1.948;2022-09-01T09:16:53;2.83;;;1.00;;
43363;SDS011;40636;52.424;-1.948;2022-09-01T09:19:27;4.25;;;0.88;;
43363;SDS011;40636;52.424;-1.948;2022-09-01T09:21:58;4.45;;;1.00;;
43363;SDS011;40636;52.424;-1.948;2022-09-01T09:24:36;3.25;;;1.40;;
43363;SDS011;40636;52.424;-1.948;2022-09-01T09:27:17;4.18;;;1.00;;
43363;SDS011;40636;52.424;-1.948;2022-09-01T09:29:47;3.72;;;0.88;;
43363;SDS011;40636;52.424;-1.948;2022-09-01T09:32:16;2.40;;;1.00;;
43363;SDS011;40636;52.424;-1.948;2022-09-01T09:35:46;7.18;;;1.98;;
43363;SDS011;40636;52.424;-1.948;2022-09-01T09:41:02;2.67;;;1.00;;
43363;SDS011;40636;52.424;-1.948;2022-09-01T09:43:55;1.52;;;1.00;;
43363;SDS011;40636;52.424;-1.948;2022-09-01T09:54:30;1.60;;;0.70;;
43363;SDS011;40636;52.424;-1.948;2022-09-01T09:59:33;4.47;;;1.20;;
43363;SDS011;40636;52.424;-1.948;2022-09-01T10:05:01;4.30;;;1.40;;
43363;SDS011;40636;52.424;-1.948;2022-09-01T10:07:49;2.58;;;0.98;;
43363;SDS011;40636;52.424;-1.948;2022-09-01T10:10:59;3.22;;;1.48;;
43363;SDS011;40636;52.424;-1.948;2022-09-01T10:13:13;2.05;;;0.88;;
43363;SDS011;40636;52.424;-1.948;2022-09-01T10:15:46;6.50;;;1.52;;
43363;SDS011;40636;52.424;-1.948;2022-09-01T10:18:21;3.83;;;1.05;;
43363;SDS011;40636;52.424;-1.948;2022-09-01T10:21:08;2.47;;;0.93;;
43363;SDS011;40636;52.424;-1.948;2022-09-01T10:23:58;5.88;;;1.15;;
43363;SDS011;40636;52.424;-1.948;2022-09-01T10:26:46;3.40;;;1.08;;
43363;SDS011;40636;52.424;-1.948;2022-09-01T10:29:23;2.55;;;0.93;;
43363;SDS011;40636;52.424;-1.948;2022-09-01T10:32:01;4.88;;;2.75;;
43363;SDS011;40636;52.424;-1.948;2022-09-01T10:35:20;2.13;;;1.03;;
43363;SDS011;40636;52.424;-1.948;2022-09-01T10:37:59;3.30;;;1.40;;
43363;SDS011;40636;52.424;-1.948;2022-09-01T10:40:44;3.55;;;1.17;;
43363;SDS011;40636;52.424;-1.948;2022-09-01T10:43:22;3.85;;;0.82;;
43363;SDS011;40636;52.424;-1.948;2022-09-01T10:45:53;4.45;;;0.98;;
43363;SDS011;40636;52.424;-1.948;2022-09-01T10:48:34;2.03;;;0.80;;
43363;SDS011;40636;52.424;-1.948;2022-09-01T10:54:01;2.42;;;1.02;;
43363;SDS011;40636;52.424;-1.948;2022-09-01T10:56:43;3.50;;;0.95;;
43363;SDS011;40636;52.424;-1.948;2022-09-01T11:02:10;19.60;;;1.27;;
43363;SDS011;40636;52.424;-1.948;2022-09-01T11:07:31;3.00;;;0.90;;
43363;SDS011;40636;52.424;-1.948;2022-09-01T11:10:30;3.42;;;0.98;;
43363;SDS011;40636;52.424;-1.948;2022-09-01T11:16:15;6.50;;;1.75;;
43363;SDS011;40636;52.424;-1.948;2022-09-01T11:22:24;5.28;;;1.48;;
43363;SDS011;40636;52.424;-1.948;2022-09-01T11:28:03;2.45;;;0.77;;
43363;SDS011;40636;52.424;-1.948;2022-09-01T11:33:40;3.03;;;1.08;;
43363;SDS011;40636;52.424;-1.948;2022-09-01T11:36:17;3.20;;;1.00;;
43363;SDS011;40636;52.424;-1.948;2022-09-01T11:44:52;1.92;;;1.27;;
43363;SDS011;40636;52.424;-1.948;2022-09-01T11:47:55;2.05;;;0.75;;
43363;SDS011;40636;52.424;-1.948;2022-09-01T11:50:37;10.13;;;3.05;;
43363;SDS011;40636;52.424;-1.948;2022-09-01T11:53:19;1.23;;;0.90;;
43363;SDS011;40636;52.424;-1.948;2022-09-01T11:55:49;2.40;;;1.05;;
43363;SDS011;40636;52.424;-1.948;2022-09-01T12:00:55;6.82;;;1.38;;
43363;SDS011;40636;52.424;-1.948;2022-09-01T12:03:26;0.85;;;0.65;;
43363;SDS011;40636;52.424;-1.948;2022-09-01T12:05:56;3.10;;;0.70;;
43363;SDS011;40636;52.424;-1.948;2022-09-01T12:08:27;3.15;;;1.15;;
43363;SDS011;40636;52.424;-1.948;2022-09-01T12:11:07;3.40;;;1.08;;
43363;SDS011;40636;52.424;-1.948;2022-09-01T12:13:54;2.25;;;0.68;;
43363;SDS011;40636;52.424;-1.948;2022-09-01T12:16:30;2.47;;;0.63;;
43363;SDS011;40636;52.424;-1.948;2022-09-01T12:19:00;4.07;;;0.80;;
43363;SDS011;40636;52.424;-1.948;2022-09-01T12:21:30;2.53;;;0.80;;
43363;SDS011;40636;52.424;-1.948;2022-09-01T12:24:14;4.38;;;1.02;;
43363;SDS011;40636;52.424;-1.948;2022-09-01T12:26:47;0.65;;;0.60;;
43363;SDS011;40636;52.424;-1.948;2022-09-01T12:29:16;2.78;;;0.70;;
43363;SDS011;40636;52.424;-1.948;2022-09-01T12:31:46;2.38;;;0.90;;
43363;SDS011;40636;52.424;-1.948;2022-09-01T12:39:42;0.90;;;0.50;;
43363;SDS011;40636;52.424;-1.948;2022-09-01T12:45:07;4.20;;;1.27;;
43363;SDS011;40636;52.424;-1.948;2022-09-01T12:52:54;1.25;;;1.05;;
43363;SDS011;40636;52.424;-1.948;2022-09-01T12:55:25;2.65;;;1.45;;
43363;SDS011;40636;52.424;-1.948;2022-09-01T12:58:19;1.08;;;0.70;;
43363;SDS011;40636;52.424;-1.948;2022-09-01T13:01:06;1.85;;;0.63;;
43363;SDS011;40636;52.424;-1.948;2022-09-01T13:06:39;2.15;;;1.95;;
43363;SDS011;40636;52.424;-1.948;2022-09-01T13:09:10;2.83;;;0.88;;
43363;SDS011;40636;52.424;-1.948;2022-09-01T13:11:37;1.30;;;0.77;;
43363;SDS011;40636;52.424;-1.948;2022-09-01T13:14:24;1.58;;;1.20;;
43363;SDS011;40636;52.424;-1.948;2022-09-01T13:16:51;6.22;;;1.02;;
43363;SDS011;40636;52.424;-1.948;2022-09-01T13:19:18;3.83;;;0.68;;
43363;SDS011;40636;52.424;-1.948;2022-09-01T13:21:55;2.58;;;0.77;;
43363;SDS011;40636;52.424;-1.948;2022-09-01T13:24:22;2.65;;;0.70;;
43363;SDS011;40636;52.424;-1.948;2022-09-01T13:26:55;0.50;;;0.50;;
43363;SDS011;40636;52.424;-1.948;2022-09-01T13:32:09;2.97;;;1.00;;
43363;SDS011;40636;52.424;-1.948;2022-09-01T13:38:21;1.08;;;0.73;;
43363;SDS011;40636;52.424;-1.948;2022-09-01T13:40:49;1.27;;;0.60;;
43363;SDS011;40636;52.424;-1.948;2022-09-01T13:43:18;1.33;;;0.85;;
43363;SDS011;40636;52.424;-1.948;2022-09-01T13:45:59;2.63;;;0.82;;
43363;SDS011;40636;52.424;-1.948;2022-09-01T13:48:26;1.70;;;0.70;;
43363;SDS011;40636;52.424;-1.948;2022-09-01T13:51:24;1.27;;;0.70;;
43363;SDS011;40636;52.424;-1.948;2022-09-01T13:53:52;1.95;;;0.70;;
43363;SDS011;40636;52.424;-1.948;2022-09-01T13:56:19;3.28;;;0.80;;
43363;SDS011;40636;52.424;-1.948;2022-09-01T13:58:46;5.45;;;1.75;;
43363;SDS011;40636;52.424;-1.948;2022-09-01T14:01:14;2.45;;;0.90;;
43363;SDS011;40636;52.424;-1.948;2022-09-01T14:03:41;1.60;;;0.80;;
43363;SDS011;40636;52.424;-1.948;2022-09-01T14:06:13;4.07;;;1.10;;
43363;SDS011;40636;52.424;-1.948;2022-09-01T14:08:40;1.33;;;0.70;;
43363;SDS011;40636;52.424;-1.948;2022-09-01T14:11:07;2.90;;;1.10;;
43363;SDS011;40636;52.424;-1.948;2022-09-01T14:13:34;3.65;;;0.90;;
43363;SDS011;40636;52.424;-1.948;2022-09-01T14:16:08;1.73;;;1.55;;
43363;SDS011;40636;52.424;-1.948;2022-09-01T14:18:36;6.07;;;1.50;;
43363;SDS011;40636;52.424;-1.948;2022-09-01T14:21:04;0.82;;;0.63;;
43363;SDS011;40636;52.424;-1.948;2022-09-01T14:23:35;2.35;;;0.98;;
43363;SDS011;40636;52.424;-1.948;2022-09-01T14:26:04;1.38;;;0.60;;
43363;SDS011;40636;52.424;-1.948;2022-09-01T14:28:35;2.50;;;0.80;;
43363;SDS011;40636;52.424;-1.948;2022-09-01T14:31:12;1.55;;;0.82;;
43363;SDS011;40636;52.424;-1.948;2022-09-01T14:33:43;1.50;;;0.80;;
43363;SDS011;40636;52.424;-1.948;2022-09-01T14:36:18;1.75;;;0.82;;
43363;SDS011;40636;52.424;-1.948;2022-09-01T14:38:47;3.85;;;0.85;;
43363;SDS011;40636;52.424;-1.948;2022-09-01T14:41:16;1.08;;;0.95;;
43363;SDS011;40636;52.424;-1.948;2022-09-01T14:43:51;2.90;;;1.08;;
43363;SDS011;40636;52.424;-1.948;2022-09-01T14:46:19;1.42;;;0.88;;
43363;SDS011;40636;52.424;-1.948;2022-09-01T14:48:46;2.45;;;1.33;;
43363;SDS011;40636;52.424;-1.948;2022-09-01T14:51:23;2.30;;;1.00;;
43363;SDS011;40636;52.424;-1.948;2022-09-01T14:54:13;1.80;;;1.08;;
43363;SDS011;40636;52.424;-1.948;2022-09-01T14:56:40;2.95;;;0.70;;
43363;SDS011;40636;52.424;-1.948;2022-09-01T14:59:07;3.00;;;0.88;;
43363;SDS011;40636;52.424;-1.948;2022-09-01T15:01:34;3.47;;;0.93;;
43363;SDS011;40636;52.424;-1.948;2022-09-01T15:04:01;1.70;;;0.73;;
43363;SDS011;40636;52.424;-1.948;2022-09-01T15:06:28;0.90;;;0.57;;
43363;SDS011;40636;52.424;-1.948;2022-09-01T15:08:57;2.03;;;0.90;;
43363;SDS011;40636;52.424;-1.948;2022-09-01T15:11:25;1.58;;;1.23;;
43363;SDS011;40636;52.424;-1.948;2022-09-01T15:13:53;1.35;;;0.70;;
43363;SDS011;40636;52.424;-1.948;2022-09-01T15:16:25;2.40;;;0.85;;
43363;SDS011;40636;52.424;-1.948;2022-09-01T15:18:53;3.72;;;0.90;;
43363;SDS011;40636;52.424;-1.948;2022-09-01T15:21:24;5.10;;;0.70;;
43363;SDS011;40636;52.424;-1.948;2022-09-01T15:23:59;2.03;;;0.55;;
43363;SDS011;40636;52.424;-1.948;2022-09-01T15:26:27;1.63;;;0.85;;
43363;SDS011;40636;52.424;-1.948;2022-09-01T15:28:55;1.38;;;0.60;;
43363;SDS011;40636;52.424;-1.948;2022-09-01T15:31:25;2.47;;;0.68;;
43363;SDS011;40636;52.424;-1.948;2022-09-01T15:33:59;0.98;;;0.70;;
43363;SDS011;40636;52.424;-1.948;2022-09-01T15:36:29;2.05;;;1.10;;
43363;SDS011;40636;52.424;-1.948;2022-09-01T15:38:57;3.00;;;1.02;;
43363;SDS011;40636;52.424;-1.948;2022-09-01T15:41:29;3.63;;;0.93;;
43363;SDS011;40636;52.424;-1.948;2022-09-01T15:43:57;2.15;;;1.00;;
43363;SDS011;40636;52.424;-1.948;2022-09-01T15:46:24;4.55;;;1.20;;
43363;SDS011;40636;52.424;-1.948;2022-09-01T15:48:58;1.10;;;0.80;;
43363;SDS011;40636;52.424;-1.948;2022-09-01T15:51:42;3.63;;;0.90;;
43363;SDS011;40636;52.424;-1.948;2022-09-01T15:54:17;1.48;;;0.68;;
43363;SDS011;40636;52.424;-1.948;2022-09-01T15:56:45;1.50;;;1.00;;
43363;SDS011;40636;52.424;-1.948;2022-09-01T15:59:13;5.75;;;2.15;;
43363;SDS011;40636;52.424;-1.948;2022-09-01T16:01:42;3.03;;;1.27;;
43363;SDS011;40636;52.424;-1.948;2022-09-01T16:04:12;1.40;;;0.82;;
43363;SDS011;40636;52.424;-1.948;2022-09-01T16:06:45;6.40;;;1.58;;
43363;SDS011;40636;52.424;-1.948;2022-09-01T16:09:12;1.70;;;1.20;;
43363;SDS011;40636;52.424;-1.948;2022-09-01T16:11:40;1.73;;;0.93;;
43363;SDS011;40636;52.424;-1.948;2022-09-01T16:14:07;2.50;;;0.95;;
43363;SDS011;40636;52.424;-1.948;2022-09-01T16:16:44;3.55;;;1.15;;
43363;SDS011;40636;52.424;-1.948;2022-09-01T16:19:30;2.38;;;1.00;;
43363;SDS011;40636;52.424;-1.948;2022-09-01T16:25:13;2.83;;;1.00;;
43363;SDS011;40636;52.424;-1.948;2022-09-01T16:27:43;1.23;;;1.13;;
43363;SDS011;40636;52.424;-1.948;2022-09-01T16:30:19;2.10;;;1.00;;
43363;SDS011;40636;52.424;-1.948;2022-09-01T16:32:53;1.60;;;0.85;;
43363;SDS011;40636;52.424;-1.948;2022-09-01T16:35:29;2.17;;;0.98;;